Impacts METAR Board
IDs:

KCFD - Bryan/Coulter Fld, TX, US

Updated at: 0600 UTC 19 Aug 2019
Potential Impact None Slight Moderate High
Time 18/18Z 18/19Z 18/20Z 18/21Z 18/22Z 18/23Z 19/00Z 19/01Z 19/02Z 19/03Z 19/04Z 19/05Z 19/06Z
Temp96 99 98 101 101 100 98 94 92 90 88 86 84
Dewpt73 72 71 69 70 69 75 75 74 74 75 75 76
Altim29.92 29.92 29.90 29.87 29.86 29.86 29.86 29.87 29.88 29.90 29.94 29.95 29.96
VIS10 10 10 10 10 10 10 10 10
CIG49 -- -- -- -- -- -- -- -- -- -- -- --
CoverBKNSCTSCTSCTSCTSCTSCTCLRCLRCLRCLRCLRCLR
FltCatVFRVFRVFRVFRVFRVFRVFRVFRVFR
WX--------------------------
WDir180180200190200170150160170180160170160
WSpd7 10 6 10 6 9 12 11 10 12 12 8 10
WGst15 16 -- -- -- -- -- 19 16 18 16 14 16
Raw hourly METARs
KCFD 181755Z AUTO 18007G15KT 10SM BKN049 36/23 A2992 RMK AO2 T03580227 10361 20267
KCFD 181855Z AUTO 18010G16KT SCT060 37/22 A2992 RMK AO2 T03700220
KCFD 181955Z AUTO 20006KT SCT060 37/21 A2990 RMK AO2 T03690214
KCFD 182055Z AUTO 19010KT 10SM SCT070 38/21 A2987 RMK AO2 LTG DSNT E T03840207
KCFD 182155Z AUTO 20006KT 10SM SCT070 39/21 A2986 RMK AO2 LTG DSNT E T03860209
KCFD 182255Z AUTO 17009KT 10SM SCT080 38/21 A2986 RMK AO2 T03800208
KCFD 182355Z AUTO 15012KT 130V190 SCT055 SCT065 SCT080 37/24 A2986 RMK AO2 T03660240 10390 20358 PWINO
KCFD 190055Z AUTO 16011G19KT CLR 35/24 A2987 RMK AO2 T03450240 PWINO
KCFD 190155Z AUTO 17010G16KT 10SM CLR 33/24 A2988 RMK AO2 LTG DSNT E T03330235
KCFD 190255Z AUTO 18012G18KT 10SM CLR 32/24 A2990 RMK AO2 T03210235
KCFD 190355Z AUTO 16012G16KT 10SM CLR 31/24 A2994 RMK AO2 T03110239
KCFD 190455Z AUTO 17008G14KT 10SM CLR 30/24 A2995 RMK AO2 T03000241
KCFD 190555Z AUTO 16010G16KT 10SM CLR 29/25 A2996 RMK AO2 T02900247 10365 20290 403900267



Page loaded:  06:15 UTC  |   11:15 PM Pacific  |   12:15 AM Mountain  |   01:15 AM Central  |   02:15 AM Eastern

 

ADVISORIES

FORECASTS

FORECASTS

OBSERVATIONS

USER TOOLS

ABOUT US